CPX210 Details

Departure: Miami International Airport (KMIA) at 0200 UTC
Arrival: Benito Juárez International Airport (MMMX) at 0500 UTC
Route: MNATE2 MNATE MTH B646 CANOA UB646 XOPGI UR522 NUBEL UT31 PAZ UJ55 DATUL DATUL4A
Notes:


Current Weather Information
KMIA 171553Z 17007KT 10SM SCT035 BKN250 33/23 A3011 RMK AO2 SLP194 T03280228
MMMX 171545Z 05003KT 6SM SKC 21/12 A3034 NOSIG RMK HZY CU